Time;durP1;ratioP1;P1;durP2;ratioP2;P2;SDS_P1;SDS_P2;PMS_P1;PMS_P2;Temp;Humidity;BMP_temperature;BMP_pressure;BME280_temperature;BME280_humidity;BME280_pressure;Samples;Min_cycle;Max_cycle;Signal;HPM_P1;HPM_P2
2022/07/05 00:00:52;;;;;;;2.53;0.77;;;23.80;94.90;;;;;;6185242;23;20091;-84
2022/07/05 00:03:18;;;;;;;1.98;0.80;;;23.80;94.90;;;;;;6184100;23;20001;-84
2022/07/05 00:05:46;;;;;;;1.38;0.70;;;23.80;94.90;;;;;;6184070;23;19998;-84
2022/07/05 00:08:11;;;;;;;2.58;0.90;;;23.80;94.90;;;;;;6184204;23;20020;-84
2022/07/05 00:10:37;;;;;;;3.25;0.88;;;23.70;94.90;;;;;;6184161;23;20337;-85
2022/07/05 00:13:04;;;;;;;1.77;0.90;;;23.70;94.90;;;;;;6183892;23;20069;-84
2022/07/05 00:15:30;;;;;;;3.85;1.05;;;23.70;94.90;;;;;;6184284;23;20009;-84
2022/07/05 00:17:56;;;;;;;2.63;0.90;;;23.70;94.90;;;;;;6183755;23;20444;-84
2022/07/05 00:20:22;;;;;;;2.40;1.00;;;23.70;94.90;;;;;;6184434;23;20001;-84
2022/07/05 00:22:50;;;;;;;2.08;1.00;;;23.70;94.90;;;;;;6184050;23;20084;-84
2022/07/05 00:25:16;;;;;;;2.67;0.70;;;23.70;94.80;;;;;;6184039;23;20024;-84
2022/07/05 00:27:44;;;;;;;3.90;0.88;;;23.70;94.80;;;;;;6184024;23;20016;-84
2022/07/05 00:30:13;;;;;;;1.75;0.70;;;23.60;94.80;;;;;;6185831;23;20020;-84
2022/07/05 00:32:39;;;;;;;2.28;0.85;;;23.60;94.90;;;;;;6183954;23;20444;-85
2022/07/05 00:35:06;;;;;;;3.13;1.00;;;23.60;94.80;;;;;;6185181;23;20033;-84
2022/07/05 00:37:35;;;;;;;5.70;0.90;;;23.60;94.80;;;;;;6185948;23;20009;-84
2022/07/05 00:40:01;;;;;;;2.70;0.90;;;23.60;94.80;;;;;;6184189;23;20001;-84
2022/07/05 00:42:26;;;;;;;5.15;0.88;;;23.60;94.80;;;;;;6185186;23;20002;-84
2022/07/05 00:44:52;;;;;;;4.30;1.00;;;23.60;94.80;;;;;;6183904;23;20451;-84
2022/07/05 00:47:21;;;;;;;1.48;0.90;;;23.50;94.90;;;;;;6183929;23;20001;-84
2022/07/05 00:49:46;;;;;;;2.67;0.77;;;23.60;94.80;;;;;;6184382;23;20005;-84
2022/07/05 00:52:14;;;;;;;1.77;0.80;;;23.50;94.80;;;;;;6184039;23;20341;-84
2022/07/05 00:54:43;;;;;;;1.80;0.80;;;23.50;94.80;;;;;;6184185;23;20456;-84
2022/07/05 00:57:09;;;;;;;2.15;0.73;;;23.50;94.80;;;;;;6184069;23;20009;-84
2022/07/05 00:59:37;;;;;;;1.73;0.63;;;23.50;94.80;;;;;;6184046;23;20448;-84
2022/07/05 01:02:06;;;;;;;2.08;0.95;;;23.50;94.80;;;;;;6183801;23;20005;-84
2022/07/05 01:04:32;;;;;;;4.18;0.90;;;23.50;94.70;;;;;;6183640;23;20441;-84
2022/07/05 01:06:58;;;;;;;2.05;0.77;;;23.50;94.80;;;;;;6183637;23;20060;-84
2022/07/05 01:09:24;;;;;;;1.30;0.60;;;23.40;94.70;;;;;;6185459;23;20005;-84
2022/07/05 01:11:51;;;;;;;1.13;0.93;;;23.50;94.70;;;;;;6185502;23;20306;-84
2022/07/05 01:14:21;;;;;;;2.90;0.82;;;23.40;95.10;;;;;;6185300;23;20080;-84
2022/07/05 01:16:48;;;;;;;1.15;0.77;;;23.40;94.70;;;;;;6183685;23;20337;-84
2022/07/05 01:19:15;;;;;;;1.60;0.80;;;23.40;94.70;;;;;;6183702;23;20085;-84
2022/07/05 01:21:43;;;;;;;2.25;0.80;;;23.40;94.70;;;;;;6185919;23;20329;-84
2022/07/05 01:24:10;;;;;;;3.13;0.90;;;23.40;94.60;;;;;;6183561;23;20001;-84
2022/07/05 01:26:38;;;;;;;1.70;0.80;;;23.40;94.70;;;;;;6183669;23;20006;-84
2022/07/05 01:29:04;;;;;;;3.67;1.08;;;23.30;94.60;;;;;;6183791;23;20011;-84
2022/07/05 01:31:30;;;;;;;3.58;0.90;;;23.40;94.60;;;;;;6183656;23;20028;-84
2022/07/05 01:33:58;;;;;;;2.70;0.70;;;23.30;94.60;;;;;;6185248;23;19997;-84
2022/07/05 01:36:23;;;;;;;2.08;0.90;;;23.30;94.60;;;;;;6183507;23;20020;-84
2022/07/05 01:38:52;;;;;;;1.58;0.85;;;23.30;94.70;;;;;;6183600;23;20017;-84
2022/07/05 01:41:20;;;;;;;4.10;0.90;;;23.30;94.60;;;;;;6183579;23;20005;-84
2022/07/05 01:43:48;;;;;;;1.65;0.93;;;23.30;94.60;;;;;;6183680;23;20009;-84
2022/07/05 01:46:19;;;;;;;4.18;1.00;;;23.30;94.60;;;;;;6183566;23;20005;-84
2022/07/05 01:48:46;;;;;;;3.80;1.10;;;23.30;94.60;;;;;;6183434;23;20001;-84
2022/07/05 01:51:26;;;;;;;5.07;1.00;;;23.20;94.50;;;;;;6185042;23;20005;-84
2022/07/05 01:53:53;;;;;;;2.55;0.80;;;23.20;94.50;;;;;;6185039;23;20079;-84
2022/07/05 01:56:19;;;;;;;2.45;1.05;;;23.20;94.60;;;;;;6185594;23;19997;-84
2022/07/05 01:58:45;;;;;;;1.48;0.65;;;23.20;94.50;;;;;;6185434;23;20015;-84
2022/07/05 02:01:13;;;;;;;2.20;0.80;;;23.20;94.50;;;;;;6185159;23;20511;-84
2022/07/05 02:03:40;;;;;;;2.55;0.80;;;23.20;94.50;;;;;;6185408;23;20032;-84
2022/07/05 02:06:10;;;;;;;3.63;0.70;;;23.10;94.50;;;;;;6185514;23;20008;-84
2022/07/05 02:08:36;;;;;;;3.53;0.90;;;23.10;94.60;;;;;;6186847;23;20430;-84
2022/07/05 02:11:06;;;;;;;2.50;0.80;;;23.20;94.50;;;;;;6185207;23;20005;-84
2022/07/05 02:13:31;;;;;;;1.95;0.82;;;23.20;94.50;;;;;;6185169;23;20088;-85
2022/07/05 02:16:02;;;;;;;4.35;1.00;;;23.10;94.50;;;;;;6186908;23;20032;-84
2022/07/05 02:18:35;;;;;;;1.30;0.70;;;23.10;94.50;;;;;;6185404;23;20005;-84
2022/07/05 02:21:27;;;;;;;1.85;0.95;;;23.10;94.50;;;;;;6186620;23;20009;-84
2022/07/05 02:23:58;;;;;;;1.30;0.70;;;23.00;94.40;;;;;;6185191;23;20310;-84
2022/07/05 02:26:24;;;;;;;5.03;1.17;;;23.10;94.50;;;;;;6185096;23;20001;-84
2022/07/05 02:28:50;;;;;;;1.70;0.90;;;23.10;94.50;;;;;;6185006;23;20001;-84
2022/07/05 02:31:16;;;;;;;2.78;0.80;;;23.10;94.50;;;;;;6184910;23;20005;-84
2022/07/05 02:33:42;;;;;;;2.05;0.88;;;23.00;94.50;;;;;;6185161;23;20345;-84
2022/07/05 02:36:08;;;;;;;2.50;0.80;;;23.00;94.40;;;;;;6186313;23;20020;-84
2022/07/05 02:38:34;;;;;;;3.08;0.90;;;23.00;94.40;;;;;;6186670;23;20009;-84
2022/07/05 02:41:00;;;;;;;3.70;0.90;;;23.00;94.40;;;;;;6184959;23;20451;-84
2022/07/05 02:43:28;;;;;;;2.53;0.90;;;23.00;94.40;;;;;;6184930;23;20001;-84
2022/07/05 02:45:54;;;;;;;2.47;0.82;;;22.90;94.30;;;;;;6184965;23;20000;-84
2022/07/05 02:48:22;;;;;;;0.90;0.63;;;23.00;94.40;;;;;;6186534;23;20008;-84
2022/07/05 02:50:47;;;;;;;2.38;0.93;;;22.90;94.30;;;;;;6184916;23;20001;-84
2022/07/05 02:53:13;;;;;;;3.13;0.98;;;22.90;94.30;;;;;;6185167;23;20341;-85
2022/07/05 02:55:39;;;;;;;3.33;0.98;;;22.90;94.30;;;;;;6185201;23;20016;-84
2022/07/05 02:58:04;;;;;;;2.60;0.82;;;22.90;94.30;;;;;;6184808;23;20013;-84
2022/07/05 03:00:30;;;;;;;2.63;0.85;;;22.90;94.40;;;;;;6185078;23;20083;-84
2022/07/05 03:02:58;;;;;;;1.55;0.80;;;22.90;94.30;;;;;;6184902;23;20008;-84
2022/07/05 03:05:26;;;;;;;1.90;0.75;;;22.90;94.30;;;;;;6184391;23;19997;-84
2022/07/05 03:07:51;;;;;;;2.17;1.02;;;22.80;94.40;;;;;;6186515;23;20001;-85
2022/07/05 03:10:17;;;;;;;1.35;0.90;;;22.90;94.30;;;;;;6186255;23;20019;-84
2022/07/05 03:12:45;;;;;;;2.08;0.70;;;22.80;94.30;;;;;;6185809;23;20072;-84
2022/07/05 03:15:13;;;;;;;2.85;0.98;;;22.80;94.20;;;;;;6186222;23;20499;-84
2022/07/05 03:17:41;;;;;;;2.20;0.88;;;22.80;94.20;;;;;;6185125;23;20040;-84
2022/07/05 03:20:07;;;;;;;1.60;0.60;;;22.80;94.20;;;;;;6185432;23;20436;-84
2022/07/05 03:22:35;;;;;;;1.02;0.70;;;22.80;94.10;;;;;;6186021;23;20001;-84
2022/07/05 03:25:03;;;;;;;2.38;0.90;;;22.80;94.10;;;;;;6184596;23;20004;-84
2022/07/05 03:27:33;;;;;;;3.08;1.02;;;22.70;94.20;;;;;;6186412;23;20080;-84
2022/07/05 03:30:08;;;;;;;3.00;0.93;;;22.70;94.10;;;;;;6184577;23;20001;-85
2022/07/05 03:32:34;;;;;;;1.67;0.68;;;22.70;94.10;;;;;;6184652;23;20009;-85
2022/07/05 03:34:59;;;;;;;1.17;0.82;;;22.70;94.10;;;;;;6184316;23;20056;-84
2022/07/05 03:37:25;;;;;;;1.10;0.80;;;22.70;94.20;;;;;;6184648;23;20020;-84
2022/07/05 03:39:51;;;;;;;1.10;0.80;;;22.70;94.10;;;;;;6184816;23;20135;-84
2022/07/05 03:42:16;;;;;;;3.80;0.82;;;22.70;94.10;;;;;;6186152;23;19997;-84
2022/07/05 03:44:47;;;;;;;2.80;0.73;;;22.70;94.10;;;;;;6184508;23;20009;-84
2022/07/05 03:47:14;;;;;;;4.85;1.00;;;22.70;94.10;;;;;;6184469;23;20009;-84
2022/07/05 03:49:39;;;;;;;5.00;0.90;;;22.70;94.10;;;;;;6184610;23;20476;-84
2022/07/05 03:52:05;;;;;;;4.20;1.20;;;22.60;94.10;;;;;;6184599;23;20036;-84
2022/07/05 03:54:31;;;;;;;2.65;0.80;;;22.60;94.10;;;;;;6184430;23;20036;-84
2022/07/05 03:56:57;;;;;;;3.50;0.85;;;22.60;94.00;;;;;;6184283;23;20005;-84
2022/07/05 03:59:24;;;;;;;2.33;0.82;;;22.60;94.10;;;;;;6185815;23;19998;-85
2022/07/05 04:01:50;;;;;;;1.45;0.80;;;22.60;94.00;;;;;;6184589;23;20005;-84
2022/07/05 04:04:16;;;;;;;3.00;1.08;;;22.60;94.00;;;;;;6185808;23;20012;-84
2022/07/05 04:06:41;;;;;;;2.03;0.95;;;22.60;94.00;;;;;;6184193;23;20296;-84
2022/07/05 04:09:10;;;;;;;2.40;0.70;;;22.60;94.00;;;;;;6184338;23;20056;-84
2022/07/05 04:11:35;;;;;;;1.30;0.80;;;22.60;94.10;;;;;;6184412;23;20024;-84
2022/07/05 04:14:01;;;;;;;2.15;0.90;;;22.60;94.10;;;;;;6184455;23;20437;-84
2022/07/05 04:16:27;;;;;;;3.58;0.90;;;22.60;94.00;;;;;;6184170;23;20013;-84
2022/07/05 04:18:53;;;;;;;3.00;0.70;;;22.60;93.90;;;;;;6185893;23;20012;-84
2022/07/05 04:21:18;;;;;;;2.05;0.90;;;22.60;94.00;;;;;;6185530;23;20076;-84
2022/07/05 04:23:44;;;;;;;3.63;0.82;;;22.50;94.00;;;;;;6184155;23;20324;-84
2022/07/05 04:26:10;;;;;;;2.25;1.00;;;22.50;94.00;;;;;;6184081;23;20005;-84
2022/07/05 04:28:38;;;;;;;1.75;0.82;;;22.50;94.10;;;;;;6185715;23;20028;-84
2022/07/05 04:31:03;;;;;;;1.98;0.98;;;22.50;94.00;;;;;;6184159;23;20009;-84
2022/07/05 04:33:31;;;;;;;1.30;0.95;;;22.50;94.00;;;;;;6184716;23;20088;-84
2022/07/05 04:35:59;;;;;;;2.25;0.90;;;22.50;94.10;;;;;;6184062;23;20013;-84
2022/07/05 04:38:29;;;;;;;3.50;1.20;;;22.50;94.10;;;;;;6185977;23;20016;-84
2022/07/05 04:40:54;;;;;;;2.65;1.10;;;22.40;94.00;;;;;;6184231;23;20049;-85
2022/07/05 04:43:20;;;;;;;3.20;1.00;;;22.50;94.10;;;;;;6185708;23;19997;-84
2022/07/05 04:45:46;;;;;;;5.65;1.00;;;22.50;94.20;;;;;;6183972;23;20076;-84
2022/07/05 04:48:11;;;;;;;1.50;0.85;;;22.40;94.10;;;;;;6184166;23;20017;-84
2022/07/05 04:50:37;;;;;;;2.55;1.10;;;22.40;94.20;;;;;;6184125;23;20009;-84
2022/07/05 04:53:03;;;;;;;1.65;1.05;;;22.40;94.20;;;;;;6183871;23;20009;-84
2022/07/05 04:55:31;;;;;;;2.17;1.10;;;22.40;94.20;;;;;;6183698;23;20452;-85
2022/07/05 04:57:57;;;;;;;2.47;1.00;;;22.40;94.30;;;;;;6184135;23;20322;-85
2022/07/05 05:00:22;;;;;;;3.17;1.30;;;22.40;94.30;;;;;;6184067;23;20013;-84
2022/07/05 05:02:48;;;;;;;1.80;1.20;;;22.40;94.30;;;;;;6185438;23;20001;-84
2022/07/05 05:05:14;;;;;;;2.90;1.25;;;22.40;94.30;;;;;;6184115;23;20001;-84
2022/07/05 05:07:45;;;;;;;5.80;1.35;;;22.40;94.40;;;;;;6183965;23;20464;-84
2022/07/05 05:10:11;;;;;;;2.95;1.20;;;22.40;94.40;;;;;;6185393;23;20003;-84
2022/07/05 05:12:37;;;;;;;3.20;1.10;;;22.40;94.40;;;;;;6184264;23;20487;-84
2022/07/05 05:15:08;;;;;;;3.58;1.10;;;22.40;94.40;;;;;;6183846;23;20044;-84
2022/07/05 05:17:37;;;;;;;4.50;1.00;;;22.40;94.50;;;;;;6185565;23;20001;-84
2022/07/05 05:20:25;;;;;;;3.42;1.13;;;22.40;94.60;;;;;;6183970;23;20340;-85
2022/07/05 05:22:50;;;;;;;2.75;1.40;;;22.40;94.60;;;;;;6183328;23;20503;-84
2022/07/05 05:25:16;;;;;;;2.63;1.30;;;22.40;94.60;;;;;;6183926;23;20001;-85
2022/07/05 05:27:48;;;;;;;4.00;1.40;;;22.40;94.70;;;;;;6184347;23;20348;-84
2022/07/05 05:30:16;;;;;;;2.28;1.10;;;22.40;94.70;;;;;;6185981;23;20063;-84
2022/07/05 05:32:42;;;;;;;2.53;1.20;;;22.40;94.80;;;;;;6185889;23;20009;-84
2022/07/05 05:35:08;;;;;;;5.57;1.45;;;22.40;94.80;;;;;;6185383;23;20013;-84
2022/07/05 05:37:54;;;;;;;1.65;0.90;;;22.40;94.90;;;;;;6185723;23;20009;-84
2022/07/05 05:40:21;;;;;;;3.15;1.20;;;22.40;95.00;;;;;;6185937;23;20031;-84
2022/07/05 05:42:54;;;;;;;2.60;1.20;;;22.40;95.00;;;;;;6185658;23;19997;-84
2022/07/05 05:45:20;;;;;;;1.45;0.93;;;22.40;95.00;;;;;;6186069;23;20029;-84
2022/07/05 05:47:46;;;;;;;3.10;0.90;;;22.40;95.10;;;;;;6187071;23;20012;-84
2022/07/05 05:50:12;;;;;;;2.28;1.00;;;22.40;95.10;;;;;;6186317;23;20023;-84
2022/07/05 05:52:38;;;;;;;3.28;1.20;;;22.40;95.20;;;;;;6185733;23;20037;-84
2022/07/05 05:55:05;;;;;;;2.55;1.20;;;22.40;95.20;;;;;;6185784;23;20340;-84
2022/07/05 05:57:32;;;;;;;2.78;1.13;;;22.40;95.20;;;;;;6187432;23;20378;-84
2022/07/05 05:59:57;;;;;;;2.75;0.80;;;22.40;95.30;;;;;;6187279;23;20001;-84
2022/07/05 06:02:23;;;;;;;2.22;0.95;;;22.40;95.40;;;;;;6185670;23;20005;-84
2022/07/05 06:04:48;;;;;;;2.33;1.20;;;22.40;95.40;;;;;;6185572;23;19998;-84
2022/07/05 06:07:14;;;;;;;2.80;0.90;;;22.40;95.40;;;;;;6185415;23;20013;-84
2022/07/05 06:09:42;;;;;;;2.63;1.15;;;22.40;95.50;;;;;;6185734;23;20063;-84
2022/07/05 06:12:08;;;;;;;2.95;0.93;;;22.40;95.50;;;;;;6185674;23;20092;-84
2022/07/05 06:14:34;;;;;;;2.28;0.93;;;22.40;95.50;;;;;;6185430;23;20072;-84
2022/07/05 06:17:02;;;;;;;1.45;0.85;;;22.40;95.60;;;;;;6185356;23;20013;-84
2022/07/05 06:19:27;;;;;;;2.10;0.90;;;22.40;95.50;;;;;;6185240;23;20008;-84
2022/07/05 06:21:53;;;;;;;2.03;0.77;;;22.40;95.60;;;;;;6185346;23;20025;-85
2022/07/05 06:24:19;;;;;;;4.97;1.10;;;22.40;95.60;;;;;;6184681;23;20001;-84
2022/07/05 06:26:47;;;;;;;2.55;1.10;;;22.40;95.60;;;;;;6186551;23;19997;-84
2022/07/05 06:29:12;;;;;;;2.58;1.10;;;22.40;95.60;;;;;;6185353;23;20447;-84
2022/07/05 06:31:38;;;;;;;2.08;1.20;;;22.40;95.60;;;;;;6185044;23;20001;-84
2022/07/05 06:34:15;;;;;;;2.95;1.10;;;22.40;95.60;;;;;;6184699;23;20012;-84
2022/07/05 06:36:41;;;;;;;2.33;1.20;;;22.40;95.50;;;;;;6184636;23;20080;-84
2022/07/05 06:39:09;;;;;;;2.08;0.90;;;22.40;95.50;;;;;;6184696;23;20031;-84
2022/07/05 06:41:37;;;;;;;1.95;1.02;;;22.50;95.60;;;;;;6184516;23;20425;-84
2022/07/05 06:44:05;;;;;;;2.13;1.10;;;22.40;95.60;;;;;;6184460;23;20337;-84
2022/07/05 06:46:31;;;;;;;1.77;1.00;;;22.40;95.60;;;;;;6184985;23;20036;-84
2022/07/05 06:48:56;;;;;;;1.50;0.80;;;22.40;95.70;;;;;;6184865;23;20024;-84
2022/07/05 06:51:22;;;;;;;2.35;0.80;;;22.40;95.60;;;;;;6184994;23;20012;-84
2022/07/05 06:53:48;;;;;;;1.98;0.90;;;22.40;95.70;;;;;;6184746;23;20016;-84
2022/07/05 06:56:13;;;;;;;2.58;1.08;;;22.40;95.70;;;;;;6184721;23;20039;-84
2022/07/05 06:58:39;;;;;;;2.78;0.88;;;22.40;95.70;;;;;;6184377;23;20005;-84
2022/07/05 07:01:04;;;;;;;1.75;1.00;;;22.50;95.70;;;;;;6184866;23;20012;-84
2022/07/05 07:03:33;;;;;;;1.40;0.80;;;22.50;95.70;;;;;;6185493;23;19997;-84
2022/07/05 07:06:04;;;;;;;1.88;0.95;;;22.50;95.70;;;;;;6184490;23;20008;-84
2022/07/05 07:11:14;;;;;;;3.08;1.00;;;22.50;95.70;;;;;;6186223;23;20071;-84
2022/07/05 07:13:42;;;;;;;1.58;0.88;;;22.50;95.60;;;;;;6186353;23;20008;-84
2022/07/05 07:16:07;;;;;;;1.88;1.10;;;22.50;95.70;;;;;;6184879;23;20024;-84
2022/07/05 07:18:35;;;;;;;2.95;1.08;;;22.50;95.80;;;;;;6184666;23;20051;-84
2022/07/05 07:21:03;;;;;;;1.23;0.70;;;22.50;95.80;;;;;;6186243;23;20008;-84
2022/07/05 07:23:31;;;;;;;1.73;0.80;;;22.50;95.70;;;;;;6184395;23;20084;-84
2022/07/05 07:25:57;;;;;;;3.30;1.30;;;22.50;95.50;;;;;;6184643;23;20001;-84
2022/07/05 07:28:24;;;;;;;1.33;0.90;;;22.50;95.50;;;;;;6186096;23;20001;-84
2022/07/05 07:30:49;;;;;;;1.70;0.90;;;22.50;95.40;;;;;;6184531;23;20035;-84
2022/07/05 07:33:15;;;;;;;2.47;1.02;;;22.50;95.40;;;;;;6184615;23;20005;-84
2022/07/05 07:35:41;;;;;;;1.77;0.95;;;22.50;95.40;;;;;;6186021;23;20013;-84
2022/07/05 07:38:07;;;;;;;1.55;1.00;;;22.60;95.50;;;;;;6184116;23;20139;-83
2022/07/05 07:40:32;;;;;;;1.90;0.90;;;22.60;95.50;;;;;;6185920;23;20008;-83
2022/07/05 07:42:58;;;;;;;2.17;0.90;;;22.60;95.50;;;;;;6186375;23;20051;-84
2022/07/05 07:45:26;;;;;;;2.53;1.05;;;22.60;95.40;;;;;;6186232;23;20011;-84
2022/07/05 07:47:54;;;;;;;1.58;0.90;;;22.60;95.60;;;;;;6184581;23;20004;-84
2022/07/05 07:50:19;;;;;;;2.33;0.98;;;22.60;95.50;;;;;;6184406;23;20425;-84
2022/07/05 07:52:45;;;;;;;1.48;1.00;;;22.60;95.50;;;;;;6184571;23;20020;-84
2022/07/05 07:55:11;;;;;;;2.22;0.70;;;22.60;95.30;;;;;;6184011;23;20438;-84
2022/07/05 07:57:36;;;;;;;7.75;0.88;;;22.60;94.70;;;;;;6186193;23;20001;-83
2022/07/05 08:00:06;;;;;;;1.95;0.70;;;22.70;93.40;;;;;;6184715;23;20009;-83
2022/07/05 08:02:31;;;;;;;1.95;0.68;;;22.60;93.10;;;;;;6185745;23;20068;-82
2022/07/05 08:04:59;;;;;;;3.25;0.57;;;22.60;93.10;;;;;;6185441;23;20472;-83
2022/07/05 08:07:26;;;;;;;1.58;0.52;;;22.50;93.20;;;;;;6183595;23;20008;-83
2022/07/05 08:09:52;;;;;;;2.00;0.77;;;22.50;93.30;;;;;;6183914;23;20341;-83
2022/07/05 08:12:19;;;;;;;2.40;0.70;;;22.50;93.40;;;;;;6183572;23;20087;-83
2022/07/05 08:14:46;;;;;;;2.15;0.70;;;22.50;93.40;;;;;;6184367;23;20011;-83
2022/07/05 08:17:12;;;;;;;1.30;0.50;;;22.50;93.50;;;;;;6184187;23;20448;-83
2022/07/05 08:22:23;;;;;;;5.18;1.10;;;22.60;94.00;;;;;;6185554;23;20104;-83
2022/07/05 08:24:48;;;;;;;4.38;0.80;;;22.60;94.10;;;;;;6184367;23;20451;-83
2022/07/05 08:27:15;;;;;;;4.55;0.88;;;22.60;93.90;;;;;;6183988;23;20005;-83
2022/07/05 08:29:41;;;;;;;3.63;0.70;;;22.60;94.00;;;;;;6184084;23;20009;-83
2022/07/05 08:32:08;;;;;;;1.80;0.85;;;22.60;94.40;;;;;;6183881;23;20028;-83
2022/07/05 08:34:34;;;;;;;2.13;0.70;;;22.60;94.10;;;;;;6183599;23;20012;-83
2022/07/05 08:36:59;;;;;;;4.28;0.73;;;22.60;94.30;;;;;;6183791;23;20013;-83
2022/07/05 08:39:26;;;;;;;1.90;0.50;;;22.60;94.50;;;;;;6183663;23;20016;-83
2022/07/05 09:01:03;;;;;;;1.95;0.70;;;22.70;94.20;;;;;;5083353;27;1323980;-82
2022/07/05 09:03:52;;;;;;;1.58;0.60;;;22.90;94.40;;;;;;5112621;28;20024;-82
2022/07/05 09:06:22;;;;;;;0.73;0.43;;;22.90;94.40;;;;;;5097674;28;20036;-82
2022/07/05 09:08:50;;;;;;;2.08;0.80;;;22.90;94.30;;;;;;5104972;28;20399;-83
2022/07/05 09:11:18;;;;;;;1.00;0.47;;;23.00;94.30;;;;;;5102946;28;20071;-83
2022/07/05 09:13:50;;;;;;;0.77;0.40;;;22.90;94.20;;;;;;5105421;28;20512;-83
2022/07/05 09:16:16;;;;;;;1.75;0.50;;;23.00;94.10;;;;;;5106776;28;20465;-83
2022/07/05 09:18:44;;;;;;;1.48;0.60;;;23.00;94.00;;;;;;5099556;28;20478;-83
2022/07/05 09:21:21;;;;;;;1.42;0.70;;;23.10;94.10;;;;;;5108382;28;20028;-84
2022/07/05 09:24:00;;;;;;;2.53;0.68;;;23.10;93.80;;;;;;5121443;28;20019;-84
2022/07/05 09:26:33;;;;;;;1.40;0.60;;;23.10;93.90;;;;;;5107892;28;20501;-83
2022/07/05 09:28:59;;;;;;;1.73;0.80;;;23.10;93.90;;;;;;5103803;28;20070;-84
2022/07/05 09:31:39;;;;;;;2.60;0.60;;;23.10;93.70;;;;;;5118814;28;20055;-83
2022/07/05 09:34:10;;;;;;;1.48;0.50;;;23.10;93.60;;;;;;5120296;28;20020;-83
2022/07/05 09:36:56;;;;;;;0.90;0.50;;;23.20;93.50;;;;;;5107422;28;20076;-83
2022/07/05 09:39:37;;;;;;;1.83;0.55;;;23.20;93.50;;;;;;5101605;28;20019;-83
2022/07/05 09:42:25;;;;;;;1.10;0.70;;;23.20;93.50;;;;;;5109589;28;20539;-83
2022/07/05 09:44:53;;;;;;;1.08;0.45;;;23.20;93.40;;;;;;5104893;28;20037;-83
2022/07/05 09:47:21;;;;;;;0.80;0.50;;;23.30;93.50;;;;;;5110497;28;20042;-83
2022/07/05 09:49:48;;;;;;;2.58;0.55;;;23.30;93.40;;;;;;5109329;28;20555;-83
2022/07/05 09:52:27;;;;;;;1.85;0.55;;;23.30;93.40;;;;;;5126907;28;20058;-83
2022/07/05 09:55:08;;;;;;;3.13;0.63;;;23.30;93.30;;;;;;5104848;28;20028;-83
2022/07/05 09:57:40;;;;;;;0.57;0.40;;;23.40;93.30;;;;;;5090003;28;20028;-83
2022/07/05 10:00:10;;;;;;;3.08;0.60;;;23.40;93.40;;;;;;5090701;28;20415;-83
2022/07/05 10:02:40;;;;;;;0.95;0.52;;;23.40;93.30;;;;;;5088839;28;20111;-83
2022/07/05 10:05:14;;;;;;;1.85;0.50;;;23.40;93.20;;;;;;5071815;28;20105;-83
2022/07/05 10:07:41;;;;;;;0.70;0.40;;;23.50;93.10;;;;;;5094680;28;20604;-83
2022/07/05 10:10:09;;;;;;;1.73;0.60;;;23.50;93.10;;;;;;5070306;28;20551;-83
2022/07/05 10:12:37;;;;;;;1.38;0.50;;;23.50;92.80;;;;;;5091341;28;20113;-83
2022/07/05 10:15:03;;;;;;;1.38;0.50;;;23.50;92.80;;;;;;5072036;28;20024;-83
2022/07/05 10:17:35;;;;;;;2.83;0.63;;;23.50;92.80;;;;;;5071615;28;20111;-83
2022/07/05 10:20:09;;;;;;;1.02;0.50;;;23.60;92.70;;;;;;5088208;28;20032;-83
2022/07/05 10:22:35;;;;;;;2.13;0.70;;;23.60;92.80;;;;;;5093017;28;20167;-82
2022/07/05 10:25:01;;;;;;;2.38;0.55;;;23.60;92.80;;;;;;5076903;28;20070;-83
2022/07/05 10:27:28;;;;;;;1.85;0.73;;;23.60;92.70;;;;;;5064541;28;20112;-83
2022/07/05 10:29:57;;;;;;;1.88;0.50;;;23.70;92.60;;;;;;5071229;28;20059;-83
2022/07/05 10:32:23;;;;;;;1.40;0.60;;;23.70;93.00;;;;;;5094557;28;20052;-83
2022/07/05 10:34:51;;;;;;;2.88;0.60;;;23.70;92.50;;;;;;5088019;28;20024;-83
2022/07/05 10:37:17;;;;;;;2.00;0.70;;;23.70;92.60;;;;;;5069948;28;20025;-83
2022/07/05 10:39:43;;;;;;;0.80;0.40;;;23.70;92.50;;;;;;5076204;28;20056;-83
2022/07/05 10:42:10;;;;;;;1.45;0.60;;;23.70;92.60;;;;;;5076481;28;20090;-83
2022/07/05 10:44:37;;;;;;;1.98;0.50;;;23.70;92.50;;;;;;5077233;28;20065;-83
2022/07/05 10:47:11;;;;;;;2.45;0.60;;;23.70;92.40;;;;;;5074105;28;20012;-84
2022/07/05 10:49:38;;;;;;;1.90;0.80;;;23.70;92.40;;;;;;5081608;28;20032;-83
2022/07/05 10:52:24;;;;;;;1.48;0.70;;;23.80;92.40;;;;;;5076942;28;20036;-83
2022/07/05 10:55:19;;;;;;;2.47;0.60;;;23.80;92.40;;;;;;5072894;28;20074;-83
2022/07/05 10:58:04;;;;;;;3.70;0.70;;;23.80;92.40;;;;;;5094150;28;20066;-83
2022/07/05 11:00:30;;;;;;;1.38;0.60;;;23.80;92.30;;;;;;5073273;28;20048;-83
2022/07/05 11:03:07;;;;;;;1.63;0.80;;;23.80;92.30;;;;;;5092578;28;20490;-84
2022/07/05 11:05:33;;;;;;;3.38;0.70;;;23.80;92.30;;;;;;5093497;28;20386;-83
2022/07/05 11:08:03;;;;;;;2.42;0.60;;;24.10;89.70;;;;;;5076158;28;20077;-83
2022/07/05 11:10:31;;;;;;;1.92;0.63;;;24.80;85.10;;;;;;5076266;28;20020;-82
2022/07/05 11:12:57;;;;;;;2.67;0.60;;;25.50;85.10;;;;;;5074700;28;20036;-83
2022/07/05 11:15:22;;;;;;;1.52;0.38;;;26.00;82.50;;;;;;5074648;28;20080;-82
2022/07/05 11:17:48;;;;;;;4.30;0.63;;;26.50;83.00;;;;;;5070624;28;20466;-83
2022/07/05 11:20:19;;;;;;;3.97;0.65;;;26.80;81.60;;;;;;5062500;28;20029;-82
2022/07/05 11:23:09;;;;;;;1.45;0.57;;;27.10;79.60;;;;;;5069378;28;20169;-84
2022/07/05 11:25:39;;;;;;;2.78;0.55;;;26.80;78.80;;;;;;5069419;28;20036;-84
2022/07/05 11:28:15;;;;;;;2.47;0.80;;;26.70;78.90;;;;;;5073717;28;20065;-84
2022/07/05 11:48:31;;;;;;;3.10;0.80;;;26.90;77.80;;;;;;5066845;28;20628;-84
2022/07/05 11:50:57;;;;;;;3.85;0.70;;;27.20;78.20;;;;;;5057825;28;20035;-85
2022/07/05 11:53:31;;;;;;;1.77;0.80;;;27.10;78.80;;;;;;5030195;28;20028;-84
2022/07/05 11:56:00;;;;;;;2.95;0.65;;;26.80;78.20;;;;;;5044499;28;20069;-84
2022/07/05 11:58:33;;;;;;;3.90;0.80;;;26.90;78.70;;;;;;5026857;28;20053;-84
2022/07/05 12:00:59;;;;;;;4.10;0.63;;;27.10;79.00;;;;;;5030519;28;20026;-84
2022/07/05 12:03:25;;;;;;;4.85;0.70;;;27.20;78.20;;;;;;5036864;28;20463;-84
2022/07/05 12:05:52;;;;;;;2.75;0.60;;;27.10;79.80;;;;;;5031735;28;20095;-84
2022/07/05 12:08:22;;;;;;;3.25;0.60;;;27.20;79.30;;;;;;5046103;28;20108;-85
2022/07/05 12:13:46;;;;;;;4.20;1.00;;;27.00;80.70;;;;;;5044775;28;20555;-84
2022/07/05 12:16:13;;;;;;;3.00;0.65;;;27.20;79.80;;;;;;5027653;28;20075;-84
2022/07/05 12:18:55;;;;;;;1.90;0.70;;;27.40;78.20;;;;;;5034825;28;20022;-83
2022/07/05 12:21:22;;;;;;;3.67;0.55;;;27.40;79.20;;;;;;5027472;28;20029;-83
2022/07/05 12:23:48;;;;;;;3.63;0.73;;;27.20;80.20;;;;;;5037093;28;20032;-84
2022/07/05 12:26:19;;;;;;;4.68;0.73;;;27.10;80.80;;;;;;5018749;28;20056;-83
2022/07/05 12:28:45;;;;;;;5.70;0.77;;;27.00;81.30;;;;;;5047331;28;20083;-83
2022/07/05 12:31:29;;;;;;;2.28;0.68;;;26.90;81.60;;;;;;5040088;28;20095;-84
2022/07/05 12:34:16;;;;;;;1.63;0.60;;;26.80;81.70;;;;;;5041303;28;20025;-83
2022/07/05 12:36:42;;;;;;;2.15;0.77;;;26.80;82.00;;;;;;5028800;28;20080;-84
2022/07/05 12:39:08;;;;;;;4.35;0.60;;;26.70;82.70;;;;;;5048979;28;20033;-84
2022/07/05 12:41:33;;;;;;;3.45;0.90;;;26.70;82.90;;;;;;5029892;28;20021;-84
2022/07/05 12:44:01;;;;;;;2.38;0.65;;;26.60;83.00;;;;;;5026704;28;20472;-84
2022/07/05 12:46:39;;;;;;;5.50;0.80;;;26.50;83.40;;;;;;5024707;28;20492;-84
2022/07/05 12:49:06;;;;;;;1.58;0.60;;;26.50;83.50;;;;;;5034139;28;20380;-83
2022/07/05 12:51:33;;;;;;;4.28;0.60;;;26.50;83.70;;;;;;5007360;28;20037;-83
2022/07/05 12:59:34;;;;;;;2.00;0.60;;;26.60;83.90;;;;;;5029483;28;20033;-83
2022/07/05 13:02:00;;;;;;;1.20;0.68;;;26.70;83.90;;;;;;5002767;28;20022;-83
2022/07/05 13:04:26;;;;;;;2.40;0.77;;;26.80;83.70;;;;;;5004948;28;20036;-84
2022/07/05 13:06:55;;;;;;;1.45;0.68;;;26.90;83.40;;;;;;5012043;28;20041;-84
2022/07/05 13:09:35;;;;;;;4.45;0.80;;;27.00;83.20;;;;;;5013486;28;20029;-83
2022/07/05 13:12:21;;;;;;;1.02;0.65;;;27.00;84.00;;;;;;5011103;28;20529;-83
2022/07/05 13:14:53;;;;;;;1.23;0.57;;;27.00;83.50;;;;;;5033236;28;20018;-83
2022/07/05 13:17:26;;;;;;;0.93;0.60;;;26.90;83.50;;;;;;5006527;28;20033;-83
2022/07/05 13:19:52;;;;;;;1.50;0.70;;;27.00;83.50;;;;;;5005541;28;20032;-83
2022/07/05 13:22:18;;;;;;;1.23;0.52;;;27.00;83.50;;;;;;5001054;28;20113;-83
2022/07/05 13:24:45;;;;;;;1.15;0.70;;;27.00;83.50;;;;;;5014073;28;20416;-83
2022/07/05 13:27:12;;;;;;;2.97;0.55;;;27.10;83.30;;;;;;5005320;28;20116;-83
2022/07/05 13:29:38;;;;;;;0.82;0.50;;;27.20;82.90;;;;;;5031805;28;20029;-84
2022/07/05 13:32:05;;;;;;;1.70;0.82;;;27.40;82.60;;;;;;5007819;28;20048;-83
2022/07/05 13:34:31;;;;;;;3.00;0.50;;;27.60;82.50;;;;;;5025263;28;20100;-83
2022/07/05 13:36:57;;;;;;;1.33;0.60;;;27.70;82.10;;;;;;5009582;28;20544;-84
2022/07/05 13:39:23;;;;;;;1.50;0.60;;;27.90;81.60;;;;;;5027003;28;20026;-83
2022/07/05 13:41:51;;;;;;;1.85;0.70;;;27.90;81.60;;;;;;5008782;28;20192;-84
2022/07/05 13:44:17;;;;;;;0.68;0.50;;;28.00;81.40;;;;;;5018217;28;20136;-83